sensor_id;sensor_type;location;lat;lon;timestamp;P1;durP1;ratioP1;P2;durP2;ratioP2
10677;SDS011;5387;48.722;9.110;2024-02-28T00:00:24;20.30;;;11.63;;
10677;SDS011;5387;48.722;9.110;2024-02-28T00:02:51;21.63;;;12.17;;
10677;SDS011;5387;48.722;9.110;2024-02-28T00:05:18;20.57;;;12.17;;
10677;SDS011;5387;48.722;9.110;2024-02-28T00:07:45;19.23;;;12.13;;
10677;SDS011;5387;48.722;9.110;2024-02-28T00:10:12;25.80;;;12.70;;
10677;SDS011;5387;48.722;9.110;2024-02-28T00:12:39;19.37;;;11.97;;
10677;SDS011;5387;48.722;9.110;2024-02-28T00:15:08;21.07;;;12.23;;
10677;SDS011;5387;48.722;9.110;2024-02-28T00:17:37;19.90;;;11.73;;
10677;SDS011;5387;48.722;9.110;2024-02-28T00:20:05;25.87;;;13.53;;
10677;SDS011;5387;48.722;9.110;2024-02-28T00:22:32;25.30;;;12.40;;
10677;SDS011;5387;48.722;9.110;2024-02-28T00:24:59;22.37;;;12.60;;
10677;SDS011;5387;48.722;9.110;2024-02-28T00:27:26;20.33;;;11.40;;
10677;SDS011;5387;48.722;9.110;2024-02-28T00:29:53;23.47;;;12.63;;
10677;SDS011;5387;48.722;9.110;2024-02-28T00:32:22;25.07;;;12.87;;
10677;SDS011;5387;48.722;9.110;2024-02-28T00:34:48;18.00;;;11.90;;
10677;SDS011;5387;48.722;9.110;2024-02-28T00:37:15;23.87;;;13.77;;
10677;SDS011;5387;48.722;9.110;2024-02-28T00:39:43;18.63;;;11.40;;
10677;SDS011;5387;48.722;9.110;2024-02-28T00:42:10;21.37;;;11.57;;
10677;SDS011;5387;48.722;9.110;2024-02-28T00:44:37;23.40;;;12.07;;
10677;SDS011;5387;48.722;9.110;2024-02-28T00:47:07;21.57;;;12.43;;
10677;SDS011;5387;48.722;9.110;2024-02-28T00:49:35;18.67;;;12.17;;
10677;SDS011;5387;48.722;9.110;2024-02-28T00:52:02;19.40;;;12.17;;
10677;SDS011;5387;48.722;9.110;2024-02-28T00:54:30;19.23;;;12.13;;
10677;SDS011;5387;48.722;9.110;2024-02-28T00:56:57;21.87;;;12.07;;
10677;SDS011;5387;48.722;9.110;2024-02-28T00:59:24;22.37;;;12.93;;
10677;SDS011;5387;48.722;9.110;2024-02-28T01:01:51;19.83;;;12.23;;
10677;SDS011;5387;48.722;9.110;2024-02-28T01:04:18;19.20;;;12.13;;
10677;SDS011;5387;48.722;9.110;2024-02-28T01:06:46;24.03;;;12.83;;
10677;SDS011;5387;48.722;9.110;2024-02-28T01:09:13;21.27;;;12.77;;
10677;SDS011;5387;48.722;9.110;2024-02-28T01:11:40;20.50;;;11.27;;
10677;SDS011;5387;48.722;9.110;2024-02-28T01:14:06;26.03;;;13.33;;
10677;SDS011;5387;48.722;9.110;2024-02-28T01:16:33;21.80;;;12.97;;
10677;SDS011;5387;48.722;9.110;2024-02-28T01:19:00;22.27;;;13.57;;
10677;SDS011;5387;48.722;9.110;2024-02-28T01:21:28;20.97;;;12.13;;
10677;SDS011;5387;48.722;9.110;2024-02-28T01:23:56;19.27;;;11.30;;
10677;SDS011;5387;48.722;9.110;2024-02-28T01:26:23;21.77;;;12.67;;
10677;SDS011;5387;48.722;9.110;2024-02-28T01:28:49;19.53;;;12.10;;
10677;SDS011;5387;48.722;9.110;2024-02-28T01:31:16;20.90;;;12.63;;
10677;SDS011;5387;48.722;9.110;2024-02-28T01:33:43;19.60;;;12.87;;
10677;SDS011;5387;48.722;9.110;2024-02-28T01:36:10;24.03;;;13.03;;
10677;SDS011;5387;48.722;9.110;2024-02-28T01:38:38;22.23;;;13.17;;
10677;SDS011;5387;48.722;9.110;2024-02-28T01:41:06;23.07;;;13.07;;
10677;SDS011;5387;48.722;9.110;2024-02-28T01:43:33;21.33;;;12.37;;
10677;SDS011;5387;48.722;9.110;2024-02-28T01:46:00;25.43;;;13.63;;
10677;SDS011;5387;48.722;9.110;2024-02-28T01:48:29;24.37;;;13.83;;
10677;SDS011;5387;48.722;9.110;2024-02-28T01:50:57;22.47;;;12.20;;
10677;SDS011;5387;48.722;9.110;2024-02-28T01:53:24;20.50;;;12.60;;
10677;SDS011;5387;48.722;9.110;2024-02-28T01:55:51;21.17;;;12.10;;
10677;SDS011;5387;48.722;9.110;2024-02-28T01:58:20;19.63;;;12.57;;
10677;SDS011;5387;48.722;9.110;2024-02-28T02:00:47;27.30;;;13.43;;
10677;SDS011;5387;48.722;9.110;2024-02-28T02:03:15;25.33;;;13.23;;
10677;SDS011;5387;48.722;9.110;2024-02-28T02:05:42;21.77;;;11.97;;
10677;SDS011;5387;48.722;9.110;2024-02-28T02:08:09;21.90;;;13.33;;
10677;SDS011;5387;48.722;9.110;2024-02-28T02:10:36;23.57;;;12.03;;
10677;SDS011;5387;48.722;9.110;2024-02-28T02:13:06;23.10;;;13.03;;
10677;SDS011;5387;48.722;9.110;2024-02-28T02:15:34;25.03;;;12.40;;
10677;SDS011;5387;48.722;9.110;2024-02-28T02:18:01;30.50;;;14.17;;
10677;SDS011;5387;48.722;9.110;2024-02-28T02:20:28;26.53;;;13.00;;
10677;SDS011;5387;48.722;9.110;2024-02-28T02:22:59;34.30;;;15.47;;
10677;SDS011;5387;48.722;9.110;2024-02-28T02:25:26;22.90;;;11.23;;
10677;SDS011;5387;48.722;9.110;2024-02-28T02:27:53;23.40;;;13.23;;
10677;SDS011;5387;48.722;9.110;2024-02-28T02:30:20;26.83;;;14.70;;
10677;SDS011;5387;48.722;9.110;2024-02-28T02:32:47;26.90;;;12.60;;
10677;SDS011;5387;48.722;9.110;2024-02-28T02:35:14;25.73;;;14.47;;
10677;SDS011;5387;48.722;9.110;2024-02-28T02:37:43;27.43;;;15.10;;
10677;SDS011;5387;48.722;9.110;2024-02-28T02:40:12;30.03;;;13.63;;
10677;SDS011;5387;48.722;9.110;2024-02-28T02:42:39;24.37;;;13.00;;
10677;SDS011;5387;48.722;9.110;2024-02-28T02:45:06;28.40;;;13.63;;
10677;SDS011;5387;48.722;9.110;2024-02-28T02:47:33;29.77;;;15.23;;
10677;SDS011;5387;48.722;9.110;2024-02-28T02:50:00;27.27;;;14.57;;
10677;SDS011;5387;48.722;9.110;2024-02-28T02:52:27;25.03;;;14.97;;
10677;SDS011;5387;48.722;9.110;2024-02-28T02:54:54;28.10;;;14.83;;
10677;SDS011;5387;48.722;9.110;2024-02-28T02:57:22;26.53;;;14.10;;
10677;SDS011;5387;48.722;9.110;2024-02-28T02:59:49;27.50;;;14.13;;
10677;SDS011;5387;48.722;9.110;2024-02-28T03:02:15;24.97;;;14.03;;
10677;SDS011;5387;48.722;9.110;2024-02-28T03:04:42;28.87;;;15.13;;
10677;SDS011;5387;48.722;9.110;2024-02-28T03:07:09;24.03;;;14.10;;
10677;SDS011;5387;48.722;9.110;2024-02-28T03:09:36;26.23;;;14.20;;
10677;SDS011;5387;48.722;9.110;2024-02-28T03:12:03;24.80;;;13.20;;
10677;SDS011;5387;48.722;9.110;2024-02-28T03:14:31;26.60;;;15.00;;
10677;SDS011;5387;48.722;9.110;2024-02-28T03:16:58;23.80;;;14.10;;
10677;SDS011;5387;48.722;9.110;2024-02-28T03:19:25;27.07;;;13.53;;
10677;SDS011;5387;48.722;9.110;2024-02-28T03:21:52;23.83;;;13.47;;
10677;SDS011;5387;48.722;9.110;2024-02-28T03:24:18;24.57;;;15.13;;
10677;SDS011;5387;48.722;9.110;2024-02-28T03:26:45;26.43;;;14.43;;
10677;SDS011;5387;48.722;9.110;2024-02-28T03:29:12;28.97;;;13.70;;
10677;SDS011;5387;48.722;9.110;2024-02-28T03:31:40;28.20;;;14.70;;
10677;SDS011;5387;48.722;9.110;2024-02-28T03:34:07;31.13;;;14.30;;
10677;SDS011;5387;48.722;9.110;2024-02-28T03:36:35;26.63;;;14.30;;
10677;SDS011;5387;48.722;9.110;2024-02-28T03:39:02;25.77;;;15.00;;
10677;SDS011;5387;48.722;9.110;2024-02-28T03:41:28;27.70;;;15.03;;
10677;SDS011;5387;48.722;9.110;2024-02-28T03:43:55;26.50;;;14.57;;
10677;SDS011;5387;48.722;9.110;2024-02-28T03:46:21;28.60;;;14.63;;
10677;SDS011;5387;48.722;9.110;2024-02-28T03:48:49;24.07;;;14.23;;
10677;SDS011;5387;48.722;9.110;2024-02-28T03:51:16;30.17;;;15.83;;
10677;SDS011;5387;48.722;9.110;2024-02-28T03:53:43;29.37;;;15.57;;
10677;SDS011;5387;48.722;9.110;2024-02-28T03:56:10;24.93;;;13.57;;
10677;SDS011;5387;48.722;9.110;2024-02-28T03:58:36;28.90;;;14.27;;
10677;SDS011;5387;48.722;9.110;2024-02-28T04:01:03;24.57;;;13.93;;
10677;SDS011;5387;48.722;9.110;2024-02-28T04:03:30;22.27;;;12.77;;
10677;SDS011;5387;48.722;9.110;2024-02-28T04:05:58;23.63;;;12.80;;
10677;SDS011;5387;48.722;9.110;2024-02-28T04:08:25;33.80;;;14.77;;
10677;SDS011;5387;48.722;9.110;2024-02-28T04:10:52;26.00;;;15.43;;
10677;SDS011;5387;48.722;9.110;2024-02-28T04:13:18;21.03;;;12.20;;
10677;SDS011;5387;48.722;9.110;2024-02-28T04:15:45;21.90;;;13.87;;
10677;SDS011;5387;48.722;9.110;2024-02-28T04:18:12;28.47;;;14.47;;
10677;SDS011;5387;48.722;9.110;2024-02-28T04:20:39;26.73;;;13.77;;
10677;SDS011;5387;48.722;9.110;2024-02-28T04:23:07;25.23;;;12.30;;
10677;SDS011;5387;48.722;9.110;2024-02-28T04:25:34;23.13;;;12.93;;
10677;SDS011;5387;48.722;9.110;2024-02-28T04:28:01;28.30;;;15.43;;
10677;SDS011;5387;48.722;9.110;2024-02-28T04:30:27;22.13;;;12.77;;
10677;SDS011;5387;48.722;9.110;2024-02-28T04:32:54;26.67;;;14.57;;
10677;SDS011;5387;48.722;9.110;2024-02-28T04:35:21;27.57;;;14.80;;
10677;SDS011;5387;48.722;9.110;2024-02-28T04:37:47;26.90;;;12.60;;
10677;SDS011;5387;48.722;9.110;2024-02-28T04:40:15;29.07;;;14.50;;
10677;SDS011;5387;48.722;9.110;2024-02-28T04:42:42;27.83;;;15.70;;
10677;SDS011;5387;48.722;9.110;2024-02-28T04:45:09;26.07;;;14.37;;
10677;SDS011;5387;48.722;9.110;2024-02-28T04:47:36;23.13;;;14.30;;
10677;SDS011;5387;48.722;9.110;2024-02-28T04:50:03;27.67;;;15.67;;
10677;SDS011;5387;48.722;9.110;2024-02-28T04:52:31;35.00;;;14.63;;
10677;SDS011;5387;48.722;9.110;2024-02-28T04:54:58;32.57;;;15.27;;
10677;SDS011;5387;48.722;9.110;2024-02-28T04:57:26;29.33;;;14.60;;
10677;SDS011;5387;48.722;9.110;2024-02-28T04:59:53;25.03;;;14.40;;
10677;SDS011;5387;48.722;9.110;2024-02-28T05:02:20;25.70;;;15.03;;
10677;SDS011;5387;48.722;9.110;2024-02-28T05:04:47;20.90;;;11.40;;
10677;SDS011;5387;48.722;9.110;2024-02-28T05:07:14;14.40;;;7.63;;
10677;SDS011;5387;48.722;9.110;2024-02-28T05:09:41;29.60;;;14.00;;
10677;SDS011;5387;48.722;9.110;2024-02-28T05:12:08;19.93;;;11.00;;
10677;SDS011;5387;48.722;9.110;2024-02-28T05:14:38;26.70;;;14.40;;
10677;SDS011;5387;48.722;9.110;2024-02-28T05:17:05;19.10;;;11.03;;
10677;SDS011;5387;48.722;9.110;2024-02-28T05:19:31;25.93;;;13.20;;
10677;SDS011;5387;48.722;9.110;2024-02-28T05:21:58;17.97;;;11.07;;
10677;SDS011;5387;48.722;9.110;2024-02-28T05:24:26;24.50;;;13.83;;
10677;SDS011;5387;48.722;9.110;2024-02-28T05:26:52;27.77;;;15.13;;
10677;SDS011;5387;48.722;9.110;2024-02-28T05:29:19;18.97;;;9.90;;
10677;SDS011;5387;48.722;9.110;2024-02-28T05:31:47;18.37;;;11.40;;
10677;SDS011;5387;48.722;9.110;2024-02-28T05:34:14;16.60;;;8.87;;
10677;SDS011;5387;48.722;9.110;2024-02-28T05:36:41;24.37;;;13.10;;
10677;SDS011;5387;48.722;9.110;2024-02-28T05:39:08;18.10;;;9.27;;
10677;SDS011;5387;48.722;9.110;2024-02-28T05:41:35;22.37;;;10.33;;
10677;SDS011;5387;48.722;9.110;2024-02-28T05:44:01;29.83;;;14.80;;
10677;SDS011;5387;48.722;9.110;2024-02-28T05:46:28;24.23;;;12.67;;
10677;SDS011;5387;48.722;9.110;2024-02-28T05:48:57;25.83;;;14.57;;
10677;SDS011;5387;48.722;9.110;2024-02-28T05:51:23;26.67;;;14.60;;
10677;SDS011;5387;48.722;9.110;2024-02-28T05:53:50;23.13;;;13.70;;
10677;SDS011;5387;48.722;9.110;2024-02-28T05:56:17;24.20;;;14.30;;
10677;SDS011;5387;48.722;9.110;2024-02-28T05:58:44;31.93;;;15.57;;
10677;SDS011;5387;48.722;9.110;2024-02-28T06:01:12;24.67;;;14.43;;
10677;SDS011;5387;48.722;9.110;2024-02-28T06:03:42;33.27;;;16.60;;
10677;SDS011;5387;48.722;9.110;2024-02-28T06:06:12;35.03;;;15.77;;
10677;SDS011;5387;48.722;9.110;2024-02-28T06:08:39;26.80;;;15.27;;
10677;SDS011;5387;48.722;9.110;2024-02-28T06:11:06;32.90;;;16.53;;
10677;SDS011;5387;48.722;9.110;2024-02-28T06:13:33;28.97;;;15.90;;
10677;SDS011;5387;48.722;9.110;2024-02-28T06:16:00;27.27;;;16.37;;
10677;SDS011;5387;48.722;9.110;2024-02-28T06:18:27;26.37;;;14.97;;
10677;SDS011;5387;48.722;9.110;2024-02-28T06:20:58;25.03;;;14.47;;
10677;SDS011;5387;48.722;9.110;2024-02-28T06:23:27;29.00;;;15.97;;
10677;SDS011;5387;48.722;9.110;2024-02-28T06:25:54;25.17;;;14.93;;
10677;SDS011;5387;48.722;9.110;2024-02-28T06:28:21;24.80;;;15.10;;
10677;SDS011;5387;48.722;9.110;2024-02-28T06:30:47;32.40;;;15.13;;
10677;SDS011;5387;48.722;9.110;2024-02-28T06:33:14;22.63;;;14.20;;
10677;SDS011;5387;48.722;9.110;2024-02-28T06:35:41;24.70;;;15.13;;
10677;SDS011;5387;48.722;9.110;2024-02-28T06:38:08;28.03;;;14.33;;
10677;SDS011;5387;48.722;9.110;2024-02-28T06:40:36;28.00;;;15.47;;
10677;SDS011;5387;48.722;9.110;2024-02-28T06:43:03;27.77;;;16.10;;
10677;SDS011;5387;48.722;9.110;2024-02-28T06:45:30;27.37;;;15.10;;
10677;SDS011;5387;48.722;9.110;2024-02-28T06:47:57;27.23;;;15.23;;
10677;SDS011;5387;48.722;9.110;2024-02-28T06:50:24;23.30;;;13.97;;
10677;SDS011;5387;48.722;9.110;2024-02-28T06:52:50;26.10;;;13.77;;
10677;SDS011;5387;48.722;9.110;2024-02-28T06:55:18;26.47;;;15.43;;
10677;SDS011;5387;48.722;9.110;2024-02-28T06:57:47;23.73;;;15.60;;
10677;SDS011;5387;48.722;9.110;2024-02-28T07:00:14;28.57;;;15.40;;
10677;SDS011;5387;48.722;9.110;2024-02-28T07:02:41;28.90;;;16.13;;
10677;SDS011;5387;48.722;9.110;2024-02-28T07:05:08;24.00;;;14.37;;
10677;SDS011;5387;48.722;9.110;2024-02-28T07:07:35;30.17;;;15.23;;
10677;SDS011;5387;48.722;9.110;2024-02-28T07:10:02;25.80;;;14.60;;
10677;SDS011;5387;48.722;9.110;2024-02-28T07:12:30;25.30;;;15.23;;
10677;SDS011;5387;48.722;9.110;2024-02-28T07:14:58;28.23;;;15.00;;
10677;SDS011;5387;48.722;9.110;2024-02-28T07:17:25;24.63;;;15.07;;
10677;SDS011;5387;48.722;9.110;2024-02-28T07:19:52;24.37;;;14.43;;
10677;SDS011;5387;48.722;9.110;2024-02-28T07:22:19;30.33;;;14.90;;
10677;SDS011;5387;48.722;9.110;2024-02-28T07:24:46;24.83;;;14.80;;
10677;SDS011;5387;48.722;9.110;2024-02-28T07:27:12;25.43;;;14.00;;
10677;SDS011;5387;48.722;9.110;2024-02-28T07:29:40;24.13;;;14.37;;
10677;SDS011;5387;48.722;9.110;2024-02-28T07:32:08;23.20;;;12.83;;
10677;SDS011;5387;48.722;9.110;2024-02-28T07:34:35;25.30;;;13.30;;
10677;SDS011;5387;48.722;9.110;2024-02-28T07:37:02;22.27;;;12.60;;
10677;SDS011;5387;48.722;9.110;2024-02-28T07:39:29;21.27;;;12.40;;
10677;SDS011;5387;48.722;9.110;2024-02-28T07:41:56;21.40;;;13.50;;
10677;SDS011;5387;48.722;9.110;2024-02-28T07:44:22;22.27;;;12.33;;
10677;SDS011;5387;48.722;9.110;2024-02-28T07:46:49;22.00;;;12.93;;
10677;SDS011;5387;48.722;9.110;2024-02-28T07:49:18;22.30;;;12.83;;
10677;SDS011;5387;48.722;9.110;2024-02-28T07:51:44;17.23;;;11.53;;
10677;SDS011;5387;48.722;9.110;2024-02-28T07:54:11;18.77;;;11.27;;
10677;SDS011;5387;48.722;9.110;2024-02-28T07:56:38;23.13;;;13.10;;
10677;SDS011;5387;48.722;9.110;2024-02-28T07:59:05;28.07;;;14.50;;
10677;SDS011;5387;48.722;9.110;2024-02-28T08:01:32;28.13;;;14.00;;
10677;SDS011;5387;48.722;9.110;2024-02-28T08:03:59;26.60;;;14.37;;
10677;SDS011;5387;48.722;9.110;2024-02-28T08:06:28;29.53;;;14.00;;
10677;SDS011;5387;48.722;9.110;2024-02-28T08:08:56;25.90;;;14.00;;
10677;SDS011;5387;48.722;9.110;2024-02-28T08:11:22;26.07;;;12.97;;
10677;SDS011;5387;48.722;9.110;2024-02-28T08:13:50;24.77;;;14.37;;
10677;SDS011;5387;48.722;9.110;2024-02-28T08:16:16;26.53;;;13.93;;
10677;SDS011;5387;48.722;9.110;2024-02-28T08:18:43;26.47;;;14.13;;
10677;SDS011;5387;48.722;9.110;2024-02-28T08:21:10;22.33;;;13.63;;
10677;SDS011;5387;48.722;9.110;2024-02-28T08:23:38;23.23;;;14.20;;
10677;SDS011;5387;48.722;9.110;2024-02-28T08:26:05;22.83;;;13.20;;
10677;SDS011;5387;48.722;9.110;2024-02-28T08:28:32;20.40;;;12.07;;
10677;SDS011;5387;48.722;9.110;2024-02-28T08:30:59;20.47;;;10.83;;
10677;SDS011;5387;48.722;9.110;2024-02-28T08:33:25;24.80;;;13.00;;
10677;SDS011;5387;48.722;9.110;2024-02-28T08:35:52;20.73;;;12.07;;
10677;SDS011;5387;48.722;9.110;2024-02-28T08:38:19;24.63;;;11.13;;
10677;SDS011;5387;48.722;9.110;2024-02-28T08:40:47;20.27;;;10.67;;
10677;SDS011;5387;48.722;9.110;2024-02-28T08:43:14;17.40;;;11.20;;
10677;SDS011;5387;48.722;9.110;2024-02-28T08:45:41;22.63;;;11.17;;
10677;SDS011;5387;48.722;9.110;2024-02-28T08:48:08;36.23;;;12.37;;
10677;SDS011;5387;48.722;9.110;2024-02-28T08:50:34;25.53;;;11.67;;
10677;SDS011;5387;48.722;9.110;2024-02-28T08:53:01;19.50;;;11.43;;
10677;SDS011;5387;48.722;9.110;2024-02-28T08:55:29;18.40;;;10.97;;
10677;SDS011;5387;48.722;9.110;2024-02-28T08:57:57;23.30;;;10.33;;
10677;SDS011;5387;48.722;9.110;2024-02-28T09:00:24;18.87;;;11.50;;
10677;SDS011;5387;48.722;9.110;2024-02-28T09:02:51;16.70;;;10.77;;
10677;SDS011;5387;48.722;9.110;2024-02-28T09:05:18;20.13;;;12.57;;
10677;SDS011;5387;48.722;9.110;2024-02-28T09:07:45;24.23;;;12.60;;
10677;SDS011;5387;48.722;9.110;2024-02-28T09:10:16;21.43;;;13.30;;
10677;SDS011;5387;48.722;9.110;2024-02-28T09:12:46;23.13;;;12.67;;
10677;SDS011;5387;48.722;9.110;2024-02-28T09:15:14;22.83;;;13.17;;
10677;SDS011;5387;48.722;9.110;2024-02-28T09:17:41;22.57;;;13.17;;
10677;SDS011;5387;48.722;9.110;2024-02-28T09:20:08;22.10;;;13.73;;
10677;SDS011;5387;48.722;9.110;2024-02-28T09:22:36;21.70;;;12.33;;
10677;SDS011;5387;48.722;9.110;2024-02-28T09:25:03;22.67;;;12.73;;
10677;SDS011;5387;48.722;9.110;2024-02-28T09:27:33;23.43;;;13.53;;
10677;SDS011;5387;48.722;9.110;2024-02-28T09:30:00;33.60;;;14.23;;
10677;SDS011;5387;48.722;9.110;2024-02-28T09:32:29;26.00;;;15.07;;
10677;SDS011;5387;48.722;9.110;2024-02-28T09:34:56;25.27;;;13.17;;
10677;SDS011;5387;48.722;9.110;2024-02-28T09:37:22;28.87;;;14.77;;
10677;SDS011;5387;48.722;9.110;2024-02-28T09:39:50;26.87;;;15.50;;
10677;SDS011;5387;48.722;9.110;2024-02-28T09:42:17;30.20;;;14.90;;
10677;SDS011;5387;48.722;9.110;2024-02-28T09:44:45;24.37;;;15.03;;
10677;SDS011;5387;48.722;9.110;2024-02-28T09:47:13;34.53;;;14.90;;
10677;SDS011;5387;48.722;9.110;2024-02-28T09:49:42;31.77;;;14.93;;
10677;SDS011;5387;48.722;9.110;2024-02-28T09:52:09;28.73;;;15.47;;
10677;SDS011;5387;48.722;9.110;2024-02-28T09:54:35;20.37;;;12.97;;
10677;SDS011;5387;48.722;9.110;2024-02-28T09:57:02;20.73;;;12.67;;
10677;SDS011;5387;48.722;9.110;2024-02-28T09:59:31;24.43;;;13.67;;
10677;SDS011;5387;48.722;9.110;2024-02-28T10:01:59;20.80;;;13.20;;
10677;SDS011;5387;48.722;9.110;2024-02-28T10:04:27;22.47;;;12.90;;
10677;SDS011;5387;48.722;9.110;2024-02-28T10:06:55;17.23;;;11.17;;
10677;SDS011;5387;48.722;9.110;2024-02-28T10:09:22;17.50;;;11.17;;
10677;SDS011;5387;48.722;9.110;2024-02-28T10:11:49;18.93;;;10.97;;
10677;SDS011;5387;48.722;9.110;2024-02-28T10:14:18;19.43;;;11.73;;
10677;SDS011;5387;48.722;9.110;2024-02-28T10:16:45;16.47;;;10.67;;
10677;SDS011;5387;48.722;9.110;2024-02-28T10:19:12;21.37;;;11.37;;
10677;SDS011;5387;48.722;9.110;2024-02-28T10:21:39;18.33;;;10.80;;
10677;SDS011;5387;48.722;9.110;2024-02-28T10:24:07;18.50;;;11.47;;
10677;SDS011;5387;48.722;9.110;2024-02-28T10:26:43;18.87;;;11.67;;
10677;SDS011;5387;48.722;9.110;2024-02-28T10:29:10;22.23;;;11.80;;
10677;SDS011;5387;48.722;9.110;2024-02-28T10:31:37;19.13;;;11.60;;
10677;SDS011;5387;48.722;9.110;2024-02-28T10:34:04;21.73;;;12.27;;
10677;SDS011;5387;48.722;9.110;2024-02-28T10:36:31;18.20;;;11.63;;
10677;SDS011;5387;48.722;9.110;2024-02-28T10:38:59;18.57;;;11.87;;
10677;SDS011;5387;48.722;9.110;2024-02-28T10:41:27;19.47;;;12.97;;
10677;SDS011;5387;48.722;9.110;2024-02-28T10:43:54;23.30;;;11.70;;
10677;SDS011;5387;48.722;9.110;2024-02-28T10:46:21;16.13;;;11.27;;
10677;SDS011;5387;48.722;9.110;2024-02-28T10:48:49;22.13;;;12.30;;
10677;SDS011;5387;48.722;9.110;2024-02-28T10:51:18;21.63;;;12.17;;
10677;SDS011;5387;48.722;9.110;2024-02-28T10:53:49;23.20;;;12.40;;
10677;SDS011;5387;48.722;9.110;2024-02-28T10:56:21;19.13;;;10.73;;
10677;SDS011;5387;48.722;9.110;2024-02-28T10:58:50;22.53;;;11.83;;
10677;SDS011;5387;48.722;9.110;2024-02-28T11:01:18;22.93;;;11.47;;
10677;SDS011;5387;48.722;9.110;2024-02-28T11:03:46;19.20;;;11.30;;
10677;SDS011;5387;48.722;9.110;2024-02-28T11:06:17;21.33;;;11.70;;
10677;SDS011;5387;48.722;9.110;2024-02-28T11:08:46;17.87;;;12.37;;
10677;SDS011;5387;48.722;9.110;2024-02-28T11:11:14;20.50;;;12.13;;
10677;SDS011;5387;48.722;9.110;2024-02-28T11:13:52;20.27;;;11.73;;
10677;SDS011;5387;48.722;9.110;2024-02-28T11:16:25;19.33;;;12.33;;
10677;SDS011;5387;48.722;9.110;2024-02-28T11:18:53;21.07;;;12.40;;
10677;SDS011;5387;48.722;9.110;2024-02-28T11:21:22;20.23;;;11.73;;
10677;SDS011;5387;48.722;9.110;2024-02-28T11:23:50;20.90;;;12.07;;
10677;SDS011;5387;48.722;9.110;2024-02-28T11:26:18;18.60;;;11.47;;
10677;SDS011;5387;48.722;9.110;2024-02-28T11:28:45;25.40;;;13.43;;
10677;SDS011;5387;48.722;9.110;2024-02-28T11:31:14;18.70;;;11.37;;
10677;SDS011;5387;48.722;9.110;2024-02-28T11:33:41;21.43;;;12.10;;
10677;SDS011;5387;48.722;9.110;2024-02-28T11:36:08;19.67;;;12.60;;
10677;SDS011;5387;48.722;9.110;2024-02-28T11:38:38;20.33;;;11.40;;
10677;SDS011;5387;48.722;9.110;2024-02-28T11:41:04;21.57;;;11.80;;
10677;SDS011;5387;48.722;9.110;2024-02-28T11:43:31;19.10;;;12.20;;
10677;SDS011;5387;48.722;9.110;2024-02-28T11:45:59;21.30;;;12.40;;
10677;SDS011;5387;48.722;9.110;2024-02-28T11:48:28;19.37;;;12.13;;
10677;SDS011;5387;48.722;9.110;2024-02-28T11:50:56;19.87;;;11.63;;
10677;SDS011;5387;48.722;9.110;2024-02-28T11:53:24;21.67;;;12.30;;
10677;SDS011;5387;48.722;9.110;2024-02-28T11:55:52;21.77;;;12.00;;
10677;SDS011;5387;48.722;9.110;2024-02-28T11:58:20;20.00;;;11.13;;
10677;SDS011;5387;48.722;9.110;2024-02-28T12:00:47;19.83;;;12.40;;
10677;SDS011;5387;48.722;9.110;2024-02-28T12:03:19;21.47;;;13.23;;
10677;SDS011;5387;48.722;9.110;2024-02-28T12:05:48;20.67;;;12.57;;
10677;SDS011;5387;48.722;9.110;2024-02-28T12:08:16;17.73;;;11.27;;
10677;SDS011;5387;48.722;9.110;2024-02-28T12:10:43;21.67;;;12.87;;
10677;SDS011;5387;48.722;9.110;2024-02-28T12:13:10;18.17;;;11.60;;
10677;SDS011;5387;48.722;9.110;2024-02-28T12:15:38;19.83;;;11.83;;
10677;SDS011;5387;48.722;9.110;2024-02-28T12:18:07;20.97;;;12.50;;
10677;SDS011;5387;48.722;9.110;2024-02-28T12:20:35;29.77;;;12.63;;
10677;SDS011;5387;48.722;9.110;2024-02-28T12:23:03;25.00;;;12.47;;
10677;SDS011;5387;48.722;9.110;2024-02-28T12:25:30;30.90;;;14.23;;
10677;SDS011;5387;48.722;9.110;2024-02-28T12:27:57;39.63;;;14.17;;
10677;SDS011;5387;48.722;9.110;2024-02-28T12:30:24;23.77;;;13.03;;
10677;SDS011;5387;48.722;9.110;2024-02-28T12:32:51;24.90;;;14.17;;
10677;SDS011;5387;48.722;9.110;2024-02-28T12:35:18;26.33;;;14.03;;
10677;SDS011;5387;48.722;9.110;2024-02-28T12:37:45;24.53;;;13.73;;
10677;SDS011;5387;48.722;9.110;2024-02-28T12:40:16;27.00;;;12.63;;
10677;SDS011;5387;48.722;9.110;2024-02-28T12:42:43;31.27;;;12.20;;
10677;SDS011;5387;48.722;9.110;2024-02-28T12:45:09;30.60;;;13.37;;
10677;SDS011;5387;48.722;9.110;2024-02-28T12:47:36;25.17;;;11.97;;
10677;SDS011;5387;48.722;9.110;2024-02-28T12:50:04;41.63;;;14.67;;
10677;SDS011;5387;48.722;9.110;2024-02-28T12:52:33;22.87;;;13.60;;
10677;SDS011;5387;48.722;9.110;2024-02-28T12:55:00;22.97;;;12.83;;
10677;SDS011;5387;48.722;9.110;2024-02-28T12:57:29;22.27;;;12.53;;
10677;SDS011;5387;48.722;9.110;2024-02-28T12:59:55;20.37;;;12.40;;
10677;SDS011;5387;48.722;9.110;2024-02-28T13:02:22;28.50;;;13.40;;
10677;SDS011;5387;48.722;9.110;2024-02-28T13:04:49;34.37;;;13.20;;
10677;SDS011;5387;48.722;9.110;2024-02-28T13:07:16;27.73;;;13.27;;
10677;SDS011;5387;48.722;9.110;2024-02-28T13:09:44;21.10;;;9.53;;
10677;SDS011;5387;48.722;9.110;2024-02-28T13:12:11;20.97;;;9.30;;
10677;SDS011;5387;48.722;9.110;2024-02-28T13:14:39;28.10;;;12.73;;
10677;SDS011;5387;48.722;9.110;2024-02-28T13:17:06;22.03;;;13.37;;
10677;SDS011;5387;48.722;9.110;2024-02-28T13:19:33;18.33;;;11.83;;
10677;SDS011;5387;48.722;9.110;2024-02-28T13:22:00;17.97;;;11.50;;
10677;SDS011;5387;48.722;9.110;2024-02-28T13:24:27;24.63;;;12.27;;
10677;SDS011;5387;48.722;9.110;2024-02-28T13:26:54;24.10;;;13.87;;
10677;SDS011;5387;48.722;9.110;2024-02-28T13:29:21;19.70;;;12.67;;
10677;SDS011;5387;48.722;9.110;2024-02-28T13:31:49;21.17;;;12.83;;
10677;SDS011;5387;48.722;9.110;2024-02-28T13:34:16;19.67;;;10.20;;
10677;SDS011;5387;48.722;9.110;2024-02-28T13:36:42;20.83;;;11.37;;
10677;SDS011;5387;48.722;9.110;2024-02-28T13:39:09;24.70;;;10.97;;
10677;SDS011;5387;48.722;9.110;2024-02-28T13:41:37;26.77;;;13.60;;
10677;SDS011;5387;48.722;9.110;2024-02-28T13:44:05;27.67;;;11.87;;
10677;SDS011;5387;48.722;9.110;2024-02-28T13:46:32;20.97;;;12.60;;
10677;SDS011;5387;48.722;9.110;2024-02-28T13:49:00;29.20;;;12.10;;
10677;SDS011;5387;48.722;9.110;2024-02-28T13:51:29;21.23;;;12.47;;
10677;SDS011;5387;48.722;9.110;2024-02-28T13:53:56;23.70;;;12.70;;
10677;SDS011;5387;48.722;9.110;2024-02-28T13:56:23;18.83;;;10.43;;
10677;SDS011;5387;48.722;9.110;2024-02-28T13:58:49;16.83;;;10.77;;
10677;SDS011;5387;48.722;9.110;2024-02-28T14:01:16;24.73;;;11.50;;
10677;SDS011;5387;48.722;9.110;2024-02-28T14:03:44;17.13;;;11.30;;
10677;SDS011;5387;48.722;9.110;2024-02-28T14:06:12;19.43;;;10.57;;
10677;SDS011;5387;48.722;9.110;2024-02-28T14:08:40;23.83;;;11.27;;
10677;SDS011;5387;48.722;9.110;2024-02-28T14:11:07;17.83;;;10.80;;
10677;SDS011;5387;48.722;9.110;2024-02-28T14:13:34;17.77;;;10.80;;
10677;SDS011;5387;48.722;9.110;2024-02-28T14:16:00;18.07;;;10.83;;
10677;SDS011;5387;48.722;9.110;2024-02-28T14:18:27;19.93;;;10.93;;
10677;SDS011;5387;48.722;9.110;2024-02-28T14:20:54;24.57;;;11.67;;
10677;SDS011;5387;48.722;9.110;2024-02-28T14:23:22;20.03;;;11.40;;
10677;SDS011;5387;48.722;9.110;2024-02-28T14:25:49;18.27;;;11.47;;
10677;SDS011;5387;48.722;9.110;2024-02-28T14:28:16;20.07;;;11.70;;
10677;SDS011;5387;48.722;9.110;2024-02-28T14:30:44;16.97;;;10.60;;
10677;SDS011;5387;48.722;9.110;2024-02-28T14:33:14;18.97;;;11.00;;
10677;SDS011;5387;48.722;9.110;2024-02-28T14:35:41;23.40;;;13.03;;